sensor_id;sensor_type;location;lat;lon;timestamp;temperature;humidity
52321;DHT22;38261;54.090;13.382;2024-03-25T00:00:39;6.20;99.90
52321;DHT22;38261;54.090;13.382;2024-03-25T00:02:01;6.20;99.90
52321;DHT22;38261;54.090;13.382;2024-03-25T00:03:22;6.20;99.90
52321;DHT22;38261;54.090;13.382;2024-03-25T00:04:43;6.20;99.90
52321;DHT22;38261;54.090;13.382;2024-03-25T00:06:05;6.20;99.90
52321;DHT22;38261;54.090;13.382;2024-03-25T00:07:27;6.20;99.90
52321;DHT22;38261;54.090;13.382;2024-03-25T00:08:48;6.10;99.90
52321;DHT22;38261;54.090;13.382;2024-03-25T00:10:09;6.10;99.90
52321;DHT22;38261;54.090;13.382;2024-03-25T00:11:30;6.10;99.90
52321;DHT22;38261;54.090;13.382;2024-03-25T00:12:52;6.10;99.90
52321;DHT22;38261;54.090;13.382;2024-03-25T00:14:17;6.10;99.90
52321;DHT22;38261;54.090;13.382;2024-03-25T00:15:38;6.10;99.90
52321;DHT22;38261;54.090;13.382;2024-03-25T00:17:00;6.10;99.90
52321;DHT22;38261;54.090;13.382;2024-03-25T00:18:21;6.10;99.90
52321;DHT22;38261;54.090;13.382;2024-03-25T00:19:43;6.10;99.90
52321;DHT22;38261;54.090;13.382;2024-03-25T00:21:09;6.10;99.90
52321;DHT22;38261;54.090;13.382;2024-03-25T00:22:30;6.10;99.90
52321;DHT22;38261;54.090;13.382;2024-03-25T00:23:51;6.10;99.90
52321;DHT22;38261;54.090;13.382;2024-03-25T00:25:13;6.10;99.90
52321;DHT22;38261;54.090;13.382;2024-03-25T00:26:34;6.10;99.90
52321;DHT22;38261;54.090;13.382;2024-03-25T00:27:55;6.10;99.90
52321;DHT22;38261;54.090;13.382;2024-03-25T00:29:17;6.10;99.90
52321;DHT22;38261;54.090;13.382;2024-03-25T00:30:39;6.10;99.90
52321;DHT22;38261;54.090;13.382;2024-03-25T00:32:00;6.10;99.90
52321;DHT22;38261;54.090;13.382;2024-03-25T00:33:21;6.10;99.90
52321;DHT22;38261;54.090;13.382;2024-03-25T00:34:43;6.10;99.90
52321;DHT22;38261;54.090;13.382;2024-03-25T00:36:04;6.10;99.90
52321;DHT22;38261;54.090;13.382;2024-03-25T00:37:25;6.10;99.90
52321;DHT22;38261;54.090;13.382;2024-03-25T00:38:47;6.10;99.90
52321;DHT22;38261;54.090;13.382;2024-03-25T00:40:08;6.10;99.90
52321;DHT22;38261;54.090;13.382;2024-03-25T00:41:29;6.00;99.90
52321;DHT22;38261;54.090;13.382;2024-03-25T00:42:50;6.10;99.90
52321;DHT22;38261;54.090;13.382;2024-03-25T00:44:12;6.10;99.90
52321;DHT22;38261;54.090;13.382;2024-03-25T00:45:33;6.00;99.90
52321;DHT22;38261;54.090;13.382;2024-03-25T00:46:54;6.10;99.90
52321;DHT22;38261;54.090;13.382;2024-03-25T00:48:15;6.00;99.90
52321;DHT22;38261;54.090;13.382;2024-03-25T00:49:36;6.10;99.90
52321;DHT22;38261;54.090;13.382;2024-03-25T00:50:58;6.10;99.90
52321;DHT22;38261;54.090;13.382;2024-03-25T00:52:19;6.10;99.90
52321;DHT22;38261;54.090;13.382;2024-03-25T00:53:41;6.10;99.90
52321;DHT22;38261;54.090;13.382;2024-03-25T00:55:03;6.10;99.90
52321;DHT22;38261;54.090;13.382;2024-03-25T00:56:24;6.10;99.90
52321;DHT22;38261;54.090;13.382;2024-03-25T00:57:46;6.10;99.90
52321;DHT22;38261;54.090;13.382;2024-03-25T00:59:07;6.10;99.90
52321;DHT22;38261;54.090;13.382;2024-03-25T01:00:28;6.10;99.90
52321;DHT22;38261;54.090;13.382;2024-03-25T01:01:49;6.10;99.90
52321;DHT22;38261;54.090;13.382;2024-03-25T01:03:11;6.10;99.90
52321;DHT22;38261;54.090;13.382;2024-03-25T01:04:32;6.10;99.90
52321;DHT22;38261;54.090;13.382;2024-03-25T01:05:53;6.10;99.90
52321;DHT22;38261;54.090;13.382;2024-03-25T01:07:14;6.20;99.90
52321;DHT22;38261;54.090;13.382;2024-03-25T01:08:36;6.20;99.90
52321;DHT22;38261;54.090;13.382;2024-03-25T01:09:57;6.20;99.90
52321;DHT22;38261;54.090;13.382;2024-03-25T01:11:19;6.20;99.90
52321;DHT22;38261;54.090;13.382;2024-03-25T01:12:40;6.20;99.90
52321;DHT22;38261;54.090;13.382;2024-03-25T01:14:01;6.20;99.90
52321;DHT22;38261;54.090;13.382;2024-03-25T01:15:23;6.20;99.90
52321;DHT22;38261;54.090;13.382;2024-03-25T01:16:44;6.20;99.90
52321;DHT22;38261;54.090;13.382;2024-03-25T01:18:05;6.20;99.90
52321;DHT22;38261;54.090;13.382;2024-03-25T01:19:26;6.10;99.90
52321;DHT22;38261;54.090;13.382;2024-03-25T01:20:47;6.10;99.90
52321;DHT22;38261;54.090;13.382;2024-03-25T01:22:09;6.10;99.90
52321;DHT22;38261;54.090;13.382;2024-03-25T01:23:30;6.10;99.90
52321;DHT22;38261;54.090;13.382;2024-03-25T01:24:51;6.10;99.90
52321;DHT22;38261;54.090;13.382;2024-03-25T01:26:12;6.10;99.90
52321;DHT22;38261;54.090;13.382;2024-03-25T01:27:34;6.10;99.90
52321;DHT22;38261;54.090;13.382;2024-03-25T01:28:55;6.10;99.90
52321;DHT22;38261;54.090;13.382;2024-03-25T01:30:16;6.10;99.90
52321;DHT22;38261;54.090;13.382;2024-03-25T01:31:37;6.00;99.90
52321;DHT22;38261;54.090;13.382;2024-03-25T01:32:59;6.10;99.90
52321;DHT22;38261;54.090;13.382;2024-03-25T01:34:20;6.10;99.90
52321;DHT22;38261;54.090;13.382;2024-03-25T01:35:41;6.10;99.90
52321;DHT22;38261;54.090;13.382;2024-03-25T01:37:03;6.10;99.90
52321;DHT22;38261;54.090;13.382;2024-03-25T01:38:24;6.10;99.90
52321;DHT22;38261;54.090;13.382;2024-03-25T01:39:45;6.10;99.90
52321;DHT22;38261;54.090;13.382;2024-03-25T01:41:10;6.10;99.90
52321;DHT22;38261;54.090;13.382;2024-03-25T01:42:32;6.10;99.90
52321;DHT22;38261;54.090;13.382;2024-03-25T01:43:53;6.10;99.90
52321;DHT22;38261;54.090;13.382;2024-03-25T01:45:15;6.10;99.90
52321;DHT22;38261;54.090;13.382;2024-03-25T01:46:36;6.10;99.90
52321;DHT22;38261;54.090;13.382;2024-03-25T01:48:02;6.10;99.90
52321;DHT22;38261;54.090;13.382;2024-03-25T01:49:24;6.10;99.90
52321;DHT22;38261;54.090;13.382;2024-03-25T01:50:45;6.10;99.90
52321;DHT22;38261;54.090;13.382;2024-03-25T01:52:07;6.10;99.90
52321;DHT22;38261;54.090;13.382;2024-03-25T01:53:29;6.00;99.90
52321;DHT22;38261;54.090;13.382;2024-03-25T01:54:50;6.00;99.90
52321;DHT22;38261;54.090;13.382;2024-03-25T01:56:12;6.00;99.90
52321;DHT22;38261;54.090;13.382;2024-03-25T01:57:34;6.00;99.90
52321;DHT22;38261;54.090;13.382;2024-03-25T01:58:55;6.00;99.90
52321;DHT22;38261;54.090;13.382;2024-03-25T02:00:17;6.00;99.90
52321;DHT22;38261;54.090;13.382;2024-03-25T02:01:39;6.00;99.90
52321;DHT22;38261;54.090;13.382;2024-03-25T02:03:01;5.90;99.90
52321;DHT22;38261;54.090;13.382;2024-03-25T02:04:22;5.90;99.90
52321;DHT22;38261;54.090;13.382;2024-03-25T02:05:43;5.90;99.90
52321;DHT22;38261;54.090;13.382;2024-03-25T02:07:07;5.90;99.90
52321;DHT22;38261;54.090;13.382;2024-03-25T02:08:28;5.90;99.90
52321;DHT22;38261;54.090;13.382;2024-03-25T02:09:51;5.90;99.90
52321;DHT22;38261;54.090;13.382;2024-03-25T02:11:14;5.90;99.90
52321;DHT22;38261;54.090;13.382;2024-03-25T02:12:38;5.90;99.90
52321;DHT22;38261;54.090;13.382;2024-03-25T02:13:59;5.90;99.90
52321;DHT22;38261;54.090;13.382;2024-03-25T02:15:21;5.80;99.90
52321;DHT22;38261;54.090;13.382;2024-03-25T02:16:42;5.80;99.90
52321;DHT22;38261;54.090;13.382;2024-03-25T02:18:04;5.80;99.90
52321;DHT22;38261;54.090;13.382;2024-03-25T02:19:25;5.80;99.90
52321;DHT22;38261;54.090;13.382;2024-03-25T02:20:47;5.80;99.90
52321;DHT22;38261;54.090;13.382;2024-03-25T02:22:09;5.80;99.90
52321;DHT22;38261;54.090;13.382;2024-03-25T02:23:30;5.80;99.90
52321;DHT22;38261;54.090;13.382;2024-03-25T02:24:53;5.80;99.90
52321;DHT22;38261;54.090;13.382;2024-03-25T02:26:14;5.80;99.90
52321;DHT22;38261;54.090;13.382;2024-03-25T02:27:36;5.70;99.90
52321;DHT22;38261;54.090;13.382;2024-03-25T02:28:58;5.70;99.90
52321;DHT22;38261;54.090;13.382;2024-03-25T02:30:19;5.60;99.90
52321;DHT22;38261;54.090;13.382;2024-03-25T02:31:40;5.60;99.90
52321;DHT22;38261;54.090;13.382;2024-03-25T02:33:01;5.60;99.90
52321;DHT22;38261;54.090;13.382;2024-03-25T02:34:22;5.60;99.90
52321;DHT22;38261;54.090;13.382;2024-03-25T02:35:44;5.60;99.90
52321;DHT22;38261;54.090;13.382;2024-03-25T02:37:06;5.50;99.90
52321;DHT22;38261;54.090;13.382;2024-03-25T02:38:27;5.50;99.90
52321;DHT22;38261;54.090;13.382;2024-03-25T02:39:48;5.50;99.90
52321;DHT22;38261;54.090;13.382;2024-03-25T02:41:10;5.50;99.90
52321;DHT22;38261;54.090;13.382;2024-03-25T02:42:32;5.50;99.90
52321;DHT22;38261;54.090;13.382;2024-03-25T02:43:53;5.60;99.90
52321;DHT22;38261;54.090;13.382;2024-03-25T02:45:15;5.60;99.90
52321;DHT22;38261;54.090;13.382;2024-03-25T02:46:38;5.60;99.90
52321;DHT22;38261;54.090;13.382;2024-03-25T02:48:00;5.70;99.90
52321;DHT22;38261;54.090;13.382;2024-03-25T02:49:21;5.70;99.90
52321;DHT22;38261;54.090;13.382;2024-03-25T02:50:42;5.70;99.90
52321;DHT22;38261;54.090;13.382;2024-03-25T02:52:03;5.70;99.90
52321;DHT22;38261;54.090;13.382;2024-03-25T02:53:25;5.70;99.90
52321;DHT22;38261;54.090;13.382;2024-03-25T02:54:46;5.70;99.90
52321;DHT22;38261;54.090;13.382;2024-03-25T02:56:07;5.70;99.90
52321;DHT22;38261;54.090;13.382;2024-03-25T02:57:28;5.60;99.90
52321;DHT22;38261;54.090;13.382;2024-03-25T02:58:50;5.60;99.90
52321;DHT22;38261;54.090;13.382;2024-03-25T03:00:11;5.60;99.90
52321;DHT22;38261;54.090;13.382;2024-03-25T03:01:34;5.60;99.90
52321;DHT22;38261;54.090;13.382;2024-03-25T03:02:55;5.50;99.90
52321;DHT22;38261;54.090;13.382;2024-03-25T03:04:16;5.50;99.90
52321;DHT22;38261;54.090;13.382;2024-03-25T03:05:37;5.40;99.90
52321;DHT22;38261;54.090;13.382;2024-03-25T03:06:58;5.40;99.90
52321;DHT22;38261;54.090;13.382;2024-03-25T03:08:20;5.40;99.90
52321;DHT22;38261;54.090;13.382;2024-03-25T03:09:41;5.30;99.90
52321;DHT22;38261;54.090;13.382;2024-03-25T03:11:02;5.30;99.90
52321;DHT22;38261;54.090;13.382;2024-03-25T03:12:23;5.30;99.90
52321;DHT22;38261;54.090;13.382;2024-03-25T03:13:45;5.30;99.90
52321;DHT22;38261;54.090;13.382;2024-03-25T03:15:06;5.30;99.90
52321;DHT22;38261;54.090;13.382;2024-03-25T03:16:27;5.30;99.90
52321;DHT22;38261;54.090;13.382;2024-03-25T03:17:50;5.20;99.90
52321;DHT22;38261;54.090;13.382;2024-03-25T03:19:11;5.20;99.90
52321;DHT22;38261;54.090;13.382;2024-03-25T03:20:32;5.20;99.90
52321;DHT22;38261;54.090;13.382;2024-03-25T03:21:54;5.20;99.90
52321;DHT22;38261;54.090;13.382;2024-03-25T03:23:15;5.20;99.90
52321;DHT22;38261;54.090;13.382;2024-03-25T03:24:36;5.20;99.90
52321;DHT22;38261;54.090;13.382;2024-03-25T03:25:57;5.20;99.90
52321;DHT22;38261;54.090;13.382;2024-03-25T03:27:20;5.20;99.90
52321;DHT22;38261;54.090;13.382;2024-03-25T03:28:41;5.20;99.90
52321;DHT22;38261;54.090;13.382;2024-03-25T03:30:03;5.20;99.90
52321;DHT22;38261;54.090;13.382;2024-03-25T03:31:26;5.20;99.90
52321;DHT22;38261;54.090;13.382;2024-03-25T03:32:47;5.30;99.90
52321;DHT22;38261;54.090;13.382;2024-03-25T03:34:08;5.30;99.90
52321;DHT22;38261;54.090;13.382;2024-03-25T03:35:35;5.30;99.90
52321;DHT22;38261;54.090;13.382;2024-03-25T03:36:57;5.30;99.90
52321;DHT22;38261;54.090;13.382;2024-03-25T03:38:18;5.30;99.90
52321;DHT22;38261;54.090;13.382;2024-03-25T03:39:39;5.30;99.90
52321;DHT22;38261;54.090;13.382;2024-03-25T03:41:02;5.30;99.90
52321;DHT22;38261;54.090;13.382;2024-03-25T03:42:24;5.30;99.90
52321;DHT22;38261;54.090;13.382;2024-03-25T03:43:45;5.30;99.90
52321;DHT22;38261;54.090;13.382;2024-03-25T03:45:07;5.30;99.90
52321;DHT22;38261;54.090;13.382;2024-03-25T03:46:28;5.30;99.90
52321;DHT22;38261;54.090;13.382;2024-03-25T03:47:49;5.30;99.90
52321;DHT22;38261;54.090;13.382;2024-03-25T03:49:11;5.30;99.90
52321;DHT22;38261;54.090;13.382;2024-03-25T03:50:32;5.30;99.90
52321;DHT22;38261;54.090;13.382;2024-03-25T03:51:53;5.30;99.90
52321;DHT22;38261;54.090;13.382;2024-03-25T03:53:14;5.30;99.90
52321;DHT22;38261;54.090;13.382;2024-03-25T03:54:36;5.30;99.90
52321;DHT22;38261;54.090;13.382;2024-03-25T03:55:59;5.30;99.90
52321;DHT22;38261;54.090;13.382;2024-03-25T03:57:20;5.30;99.90
52321;DHT22;38261;54.090;13.382;2024-03-25T03:58:42;5.30;99.90
52321;DHT22;38261;54.090;13.382;2024-03-25T04:00:03;5.30;99.90
52321;DHT22;38261;54.090;13.382;2024-03-25T04:01:25;5.30;99.90
52321;DHT22;38261;54.090;13.382;2024-03-25T04:02:46;5.30;99.90
52321;DHT22;38261;54.090;13.382;2024-03-25T04:04:08;5.30;99.90
52321;DHT22;38261;54.090;13.382;2024-03-25T04:05:30;5.30;99.90
52321;DHT22;38261;54.090;13.382;2024-03-25T04:06:51;5.30;99.90
52321;DHT22;38261;54.090;13.382;2024-03-25T04:08:13;5.30;99.90
52321;DHT22;38261;54.090;13.382;2024-03-25T04:09:34;5.30;99.90
52321;DHT22;38261;54.090;13.382;2024-03-25T04:10:55;5.30;99.90
52321;DHT22;38261;54.090;13.382;2024-03-25T04:12:16;5.40;99.90
52321;DHT22;38261;54.090;13.382;2024-03-25T04:13:40;5.40;99.90
52321;DHT22;38261;54.090;13.382;2024-03-25T04:15:01;5.40;99.90
52321;DHT22;38261;54.090;13.382;2024-03-25T04:16:22;5.40;99.90
52321;DHT22;38261;54.090;13.382;2024-03-25T04:17:44;5.30;99.90
52321;DHT22;38261;54.090;13.382;2024-03-25T04:19:06;5.30;99.90
52321;DHT22;38261;54.090;13.382;2024-03-25T04:20:27;5.30;99.90
52321;DHT22;38261;54.090;13.382;2024-03-25T04:21:53;5.30;99.90
52321;DHT22;38261;54.090;13.382;2024-03-25T04:23:14;5.30;99.90
52321;DHT22;38261;54.090;13.382;2024-03-25T04:24:35;5.30;99.90
52321;DHT22;38261;54.090;13.382;2024-03-25T04:26:01;5.30;99.90
52321;DHT22;38261;54.090;13.382;2024-03-25T04:27:22;5.30;99.90
52321;DHT22;38261;54.090;13.382;2024-03-25T04:28:45;5.30;99.90
52321;DHT22;38261;54.090;13.382;2024-03-25T04:30:07;5.30;99.90
52321;DHT22;38261;54.090;13.382;2024-03-25T04:31:29;5.30;99.90
52321;DHT22;38261;54.090;13.382;2024-03-25T04:32:50;5.30;99.90
52321;DHT22;38261;54.090;13.382;2024-03-25T04:34:11;5.30;99.90
52321;DHT22;38261;54.090;13.382;2024-03-25T04:35:32;5.30;99.90
52321;DHT22;38261;54.090;13.382;2024-03-25T04:36:53;5.30;99.90
52321;DHT22;38261;54.090;13.382;2024-03-25T04:38:16;5.30;99.90
52321;DHT22;38261;54.090;13.382;2024-03-25T04:39:38;5.30;99.90
52321;DHT22;38261;54.090;13.382;2024-03-25T04:40:59;5.30;99.90
52321;DHT22;38261;54.090;13.382;2024-03-25T04:42:21;5.40;99.90
52321;DHT22;38261;54.090;13.382;2024-03-25T04:43:42;5.40;99.90
52321;DHT22;38261;54.090;13.382;2024-03-25T04:45:04;5.40;99.90
52321;DHT22;38261;54.090;13.382;2024-03-25T04:46:25;5.40;99.90
52321;DHT22;38261;54.090;13.382;2024-03-25T04:47:46;5.30;99.90
52321;DHT22;38261;54.090;13.382;2024-03-25T04:49:07;5.30;99.90
52321;DHT22;38261;54.090;13.382;2024-03-25T04:50:30;5.30;99.90
52321;DHT22;38261;54.090;13.382;2024-03-25T04:51:51;5.30;99.90
52321;DHT22;38261;54.090;13.382;2024-03-25T04:53:14;5.30;99.90
52321;DHT22;38261;54.090;13.382;2024-03-25T04:54:35;5.30;99.90
52321;DHT22;38261;54.090;13.382;2024-03-25T04:55:57;5.30;99.90
52321;DHT22;38261;54.090;13.382;2024-03-25T04:57:18;5.30;99.90
52321;DHT22;38261;54.090;13.382;2024-03-25T04:58:39;5.30;99.90
52321;DHT22;38261;54.090;13.382;2024-03-25T05:00:00;5.30;99.90
52321;DHT22;38261;54.090;13.382;2024-03-25T05:01:23;5.30;99.90
52321;DHT22;38261;54.090;13.382;2024-03-25T05:02:44;5.30;99.90
52321;DHT22;38261;54.090;13.382;2024-03-25T05:04:05;5.30;99.90
52321;DHT22;38261;54.090;13.382;2024-03-25T05:05:30;5.20;99.90
52321;DHT22;38261;54.090;13.382;2024-03-25T05:06:51;5.30;99.90
52321;DHT22;38261;54.090;13.382;2024-03-25T05:08:12;5.30;99.90
52321;DHT22;38261;54.090;13.382;2024-03-25T05:09:35;5.30;99.90
52321;DHT22;38261;54.090;13.382;2024-03-25T05:10:56;5.30;99.90
52321;DHT22;38261;54.090;13.382;2024-03-25T05:12:17;5.30;99.90
52321;DHT22;38261;54.090;13.382;2024-03-25T05:13:38;5.30;99.90
52321;DHT22;38261;54.090;13.382;2024-03-25T05:15:00;5.30;99.90
52321;DHT22;38261;54.090;13.382;2024-03-25T05:16:21;5.30;99.90
52321;DHT22;38261;54.090;13.382;2024-03-25T05:17:42;5.30;99.90
52321;DHT22;38261;54.090;13.382;2024-03-25T05:19:04;5.30;99.90
52321;DHT22;38261;54.090;13.382;2024-03-25T05:20:25;5.30;99.90
52321;DHT22;38261;54.090;13.382;2024-03-25T05:21:47;5.30;99.90
52321;DHT22;38261;54.090;13.382;2024-03-25T05:23:09;5.30;99.90
52321;DHT22;38261;54.090;13.382;2024-03-25T05:24:30;5.30;99.90
52321;DHT22;38261;54.090;13.382;2024-03-25T05:25:51;5.30;99.90
52321;DHT22;38261;54.090;13.382;2024-03-25T05:27:12;5.30;99.90
52321;DHT22;38261;54.090;13.382;2024-03-25T05:28:34;5.30;99.90
52321;DHT22;38261;54.090;13.382;2024-03-25T05:29:55;5.40;99.90
52321;DHT22;38261;54.090;13.382;2024-03-25T05:31:16;5.40;99.90
52321;DHT22;38261;54.090;13.382;2024-03-25T05:32:37;5.40;99.90
52321;DHT22;38261;54.090;13.382;2024-03-25T05:33:58;5.40;99.90
52321;DHT22;38261;54.090;13.382;2024-03-25T05:35:22;5.40;99.90
52321;DHT22;38261;54.090;13.382;2024-03-25T05:36:43;5.40;99.90
52321;DHT22;38261;54.090;13.382;2024-03-25T05:38:05;5.50;99.90
52321;DHT22;38261;54.090;13.382;2024-03-25T05:39:26;5.50;99.90
52321;DHT22;38261;54.090;13.382;2024-03-25T05:40:47;5.50;99.90
52321;DHT22;38261;54.090;13.382;2024-03-25T05:42:08;5.60;99.90
52321;DHT22;38261;54.090;13.382;2024-03-25T05:43:30;5.60;99.90
52321;DHT22;38261;54.090;13.382;2024-03-25T05:44:51;5.70;99.90
52321;DHT22;38261;54.090;13.382;2024-03-25T05:46:12;5.70;99.90
52321;DHT22;38261;54.090;13.382;2024-03-25T05:47:33;5.70;99.90
52321;DHT22;38261;54.090;13.382;2024-03-25T05:48:54;5.70;99.90
52321;DHT22;38261;54.090;13.382;2024-03-25T05:50:16;5.70;99.90
52321;DHT22;38261;54.090;13.382;2024-03-25T05:51:37;5.70;99.90
52321;DHT22;38261;54.090;13.382;2024-03-25T05:52:59;5.70;99.90
52321;DHT22;38261;54.090;13.382;2024-03-25T05:54:20;5.80;99.90
52321;DHT22;38261;54.090;13.382;2024-03-25T05:55:41;5.80;99.90
52321;DHT22;38261;54.090;13.382;2024-03-25T05:57:03;5.80;99.90
52321;DHT22;38261;54.090;13.382;2024-03-25T05:58:24;5.80;99.90
52321;DHT22;38261;54.090;13.382;2024-03-25T05:59:45;5.80;99.90
52321;DHT22;38261;54.090;13.382;2024-03-25T06:01:07;5.80;99.90
52321;DHT22;38261;54.090;13.382;2024-03-25T06:02:28;5.80;99.90
52321;DHT22;38261;54.090;13.382;2024-03-25T06:03:49;5.80;99.90
52321;DHT22;38261;54.090;13.382;2024-03-25T06:05:10;5.90;99.90
52321;DHT22;38261;54.090;13.382;2024-03-25T06:06:32;5.90;99.90
52321;DHT22;38261;54.090;13.382;2024-03-25T06:07:53;5.90;99.90
52321;DHT22;38261;54.090;13.382;2024-03-25T06:09:14;5.90;99.90
52321;DHT22;38261;54.090;13.382;2024-03-25T06:10:37;6.00;99.90
52321;DHT22;38261;54.090;13.382;2024-03-25T06:11:58;6.00;99.90
52321;DHT22;38261;54.090;13.382;2024-03-25T06:13:20;6.00;99.90
52321;DHT22;38261;54.090;13.382;2024-03-25T06:14:41;6.00;99.90
52321;DHT22;38261;54.090;13.382;2024-03-25T06:16:04;6.00;99.90
52321;DHT22;38261;54.090;13.382;2024-03-25T06:17:26;6.00;99.90
52321;DHT22;38261;54.090;13.382;2024-03-25T06:18:47;6.00;99.90
52321;DHT22;38261;54.090;13.382;2024-03-25T06:20:09;6.10;99.90
52321;DHT22;38261;54.090;13.382;2024-03-25T06:21:30;6.10;99.90
52321;DHT22;38261;54.090;13.382;2024-03-25T06:22:51;6.20;99.90
52321;DHT22;38261;54.090;13.382;2024-03-25T06:24:12;6.20;99.90
52321;DHT22;38261;54.090;13.382;2024-03-25T06:25:34;6.30;99.90
52321;DHT22;38261;54.090;13.382;2024-03-25T06:26:56;6.30;99.90
52321;DHT22;38261;54.090;13.382;2024-03-25T06:28:17;6.40;99.90
52321;DHT22;38261;54.090;13.382;2024-03-25T06:29:40;6.50;99.90
52321;DHT22;38261;54.090;13.382;2024-03-25T06:31:01;6.50;99.90
52321;DHT22;38261;54.090;13.382;2024-03-25T06:32:41;6.50;99.90
52321;DHT22;38261;54.090;13.382;2024-03-25T06:34:20;6.50;99.90
52321;DHT22;38261;54.090;13.382;2024-03-25T06:35:44;6.60;99.90
52321;DHT22;38261;54.090;13.382;2024-03-25T06:37:06;6.60;99.90
52321;DHT22;38261;54.090;13.382;2024-03-25T06:38:27;6.60;99.90
52321;DHT22;38261;54.090;13.382;2024-03-25T06:39:48;6.60;99.90
52321;DHT22;38261;54.090;13.382;2024-03-25T06:41:10;6.60;99.90
52321;DHT22;38261;54.090;13.382;2024-03-25T06:42:31;6.60;99.90
52321;DHT22;38261;54.090;13.382;2024-03-25T06:43:52;6.60;99.90
52321;DHT22;38261;54.090;13.382;2024-03-25T06:45:13;6.60;99.90
52321;DHT22;38261;54.090;13.382;2024-03-25T06:46:37;6.60;99.90
52321;DHT22;38261;54.090;13.382;2024-03-25T06:47:58;6.60;99.90
52321;DHT22;38261;54.090;13.382;2024-03-25T06:49:19;6.60;99.90
52321;DHT22;38261;54.090;13.382;2024-03-25T06:50:40;6.60;99.90
52321;DHT22;38261;54.090;13.382;2024-03-25T06:52:02;6.60;99.90
52321;DHT22;38261;54.090;13.382;2024-03-25T06:53:23;6.60;99.90
52321;DHT22;38261;54.090;13.382;2024-03-25T06:54:45;6.60;99.90
52321;DHT22;38261;54.090;13.382;2024-03-25T06:56:06;6.60;99.90
52321;DHT22;38261;54.090;13.382;2024-03-25T06:57:27;6.60;99.90
52321;DHT22;38261;54.090;13.382;2024-03-25T06:58:48;6.60;99.90
52321;DHT22;38261;54.090;13.382;2024-03-25T07:00:10;6.60;99.90
52321;DHT22;38261;54.090;13.382;2024-03-25T07:01:34;6.70;99.90
52321;DHT22;38261;54.090;13.382;2024-03-25T07:02:55;6.70;99.90
52321;DHT22;38261;54.090;13.382;2024-03-25T07:04:16;6.70;99.90
52321;DHT22;38261;54.090;13.382;2024-03-25T07:05:38;6.70;99.90
52321;DHT22;38261;54.090;13.382;2024-03-25T07:06:59;6.80;99.90
52321;DHT22;38261;54.090;13.382;2024-03-25T07:08:20;6.80;99.90
52321;DHT22;38261;54.090;13.382;2024-03-25T07:09:41;6.80;99.90
52321;DHT22;38261;54.090;13.382;2024-03-25T07:11:03;6.80;99.90
52321;DHT22;38261;54.090;13.382;2024-03-25T07:12:24;6.80;99.90
52321;DHT22;38261;54.090;13.382;2024-03-25T07:13:45;6.80;99.90
52321;DHT22;38261;54.090;13.382;2024-03-25T07:15:06;6.80;99.90
52321;DHT22;38261;54.090;13.382;2024-03-25T07:16:28;6.90;99.90
52321;DHT22;38261;54.090;13.382;2024-03-25T07:17:49;6.90;99.90
52321;DHT22;38261;54.090;13.382;2024-03-25T07:19:10;6.90;99.90
52321;DHT22;38261;54.090;13.382;2024-03-25T07:20:32;6.90;99.90
52321;DHT22;38261;54.090;13.382;2024-03-25T07:21:53;6.90;99.90
52321;DHT22;38261;54.090;13.382;2024-03-25T07:23:14;6.90;99.90
52321;DHT22;38261;54.090;13.382;2024-03-25T07:24:35;6.90;99.90
52321;DHT22;38261;54.090;13.382;2024-03-25T07:25:57;6.90;99.90
52321;DHT22;38261;54.090;13.382;2024-03-25T07:27:18;6.90;99.90
52321;DHT22;38261;54.090;13.382;2024-03-25T07:28:39;7.00;99.90
52321;DHT22;38261;54.090;13.382;2024-03-25T07:30:00;7.00;99.90
52321;DHT22;38261;54.090;13.382;2024-03-25T07:31:21;7.00;99.90
52321;DHT22;38261;54.090;13.382;2024-03-25T07:32:43;7.00;99.90
52321;DHT22;38261;54.090;13.382;2024-03-25T07:34:06;7.00;99.90
52321;DHT22;38261;54.090;13.382;2024-03-25T07:35:27;7.00;99.90
52321;DHT22;38261;54.090;13.382;2024-03-25T07:36:48;6.90;99.90
52321;DHT22;38261;54.090;13.382;2024-03-25T07:38:10;6.90;99.90
52321;DHT22;38261;54.090;13.382;2024-03-25T07:39:31;6.90;99.90
52321;DHT22;38261;54.090;13.382;2024-03-25T07:40:52;6.90;99.90
52321;DHT22;38261;54.090;13.382;2024-03-25T07:42:13;6.80;99.90
52321;DHT22;38261;54.090;13.382;2024-03-25T07:43:35;6.80;99.90
52321;DHT22;38261;54.090;13.382;2024-03-25T07:44:56;6.80;99.90
52321;DHT22;38261;54.090;13.382;2024-03-25T07:46:17;6.80;99.90
52321;DHT22;38261;54.090;13.382;2024-03-25T07:47:39;6.80;99.90
52321;DHT22;38261;54.090;13.382;2024-03-25T07:49:00;6.80;99.90
52321;DHT22;38261;54.090;13.382;2024-03-25T07:50:21;6.80;99.90
52321;DHT22;38261;54.090;13.382;2024-03-25T07:51:42;6.80;99.90
52321;DHT22;38261;54.090;13.382;2024-03-25T07:53:03;6.80;99.90
52321;DHT22;38261;54.090;13.382;2024-03-25T07:54:25;6.90;99.90
52321;DHT22;38261;54.090;13.382;2024-03-25T07:55:47;7.00;99.90
52321;DHT22;38261;54.090;13.382;2024-03-25T07:57:08;7.10;99.90
52321;DHT22;38261;54.090;13.382;2024-03-25T07:58:30;7.20;99.90
52321;DHT22;38261;54.090;13.382;2024-03-25T07:59:51;7.20;99.90
52321;DHT22;38261;54.090;13.382;2024-03-25T08:01:12;7.30;99.90
52321;DHT22;38261;54.090;13.382;2024-03-25T08:02:34;7.40;99.90
52321;DHT22;38261;54.090;13.382;2024-03-25T08:03:55;7.40;99.90
52321;DHT22;38261;54.090;13.382;2024-03-25T08:05:16;7.50;99.90
52321;DHT22;38261;54.090;13.382;2024-03-25T08:06:38;7.50;99.90
52321;DHT22;38261;54.090;13.382;2024-03-25T08:07:59;7.50;99.90
52321;DHT22;38261;54.090;13.382;2024-03-25T08:09:20;7.60;99.90
52321;DHT22;38261;54.090;13.382;2024-03-25T08:10:41;7.60;99.90
52321;DHT22;38261;54.090;13.382;2024-03-25T08:12:02;7.60;99.90
52321;DHT22;38261;54.090;13.382;2024-03-25T08:13:24;7.60;99.90
52321;DHT22;38261;54.090;13.382;2024-03-25T08:14:47;7.60;99.90
52321;DHT22;38261;54.090;13.382;2024-03-25T08:16:09;7.70;99.90
52321;DHT22;38261;54.090;13.382;2024-03-25T08:17:30;7.70;99.90
52321;DHT22;38261;54.090;13.382;2024-03-25T08:18:51;7.70;99.90
52321;DHT22;38261;54.090;13.382;2024-03-25T08:20:12;7.60;99.90
52321;DHT22;38261;54.090;13.382;2024-03-25T08:21:33;7.60;99.90
52321;DHT22;38261;54.090;13.382;2024-03-25T08:22:55;7.70;99.90
52321;DHT22;38261;54.090;13.382;2024-03-25T08:24:16;7.80;99.90
52321;DHT22;38261;54.090;13.382;2024-03-25T08:25:37;7.90;99.90
52321;DHT22;38261;54.090;13.382;2024-03-25T08:26:58;8.00;99.90
52321;DHT22;38261;54.090;13.382;2024-03-25T08:28:19;8.10;99.90
52321;DHT22;38261;54.090;13.382;2024-03-25T08:29:41;8.20;99.90
52321;DHT22;38261;54.090;13.382;2024-03-25T08:31:02;8.20;99.90
52321;DHT22;38261;54.090;13.382;2024-03-25T08:32:23;8.20;99.90
52321;DHT22;38261;54.090;13.382;2024-03-25T08:33:44;8.20;99.90
52321;DHT22;38261;54.090;13.382;2024-03-25T08:35:06;8.20;99.90